EGJB

Guernsey Airport

Saint Peter Port, Guernsey
METAR EGJB 230820Z 04011KT 9999 FEW012 14/11 Q1021
Observed Flight Rules
May-23 @ 08:20 UTC (40 minutes ago) Visual Flight Rules
Wind Visibility Clouds
40° at 11 knots 10,000+ meters
  • Few at 1,200' AGL
Temperatures Readings
Current 14°C / 57°F
Dewpoint 11°C / 52°F
Humidity 82%
Altimeter 30.15" Hg
Pressure 1021 hPa
Elevation 102
METAR EGJB 230820Z 04011KT 9999 FEW012 14/11 Q1021
Observed Flight Rules
May-23 @ 08:20 UTC
(40 minutes ago)
VFR
Wind Visibility
40° at 11 knots 10,000+ meters
Clouds
  • Few at 1,200' AGL
Temperature Dewpoint
14°C / 57°F 11°C / 52°F
Humidity Altimeter Pressure
82% 30.15" Hg 1021 hPa